createdAt,value
2023-02-11T09:52:40.411Z,62.33
2023-02-11T09:55:25.728Z,61.22
2023-02-11T09:57:52.949Z,47.92
2023-02-11T10:00:28.596Z,56.88
2023-02-11T10:03:20.723Z,58.63
2023-02-11T10:05:59.184Z,61.60
2023-02-11T10:08:54.691Z,61.72
2023-02-11T10:11:48.679Z,59.83
2023-02-11T10:14:49.585Z,62.85
2023-02-11T10:17:23.120Z,65.05
2023-02-11T10:19:53.060Z,61.17
2023-02-11T10:22:28.627Z,58.42
2023-02-11T10:24:59.868Z,59.88
2023-02-11T10:27:36.966Z,50.42
2023-02-11T10:30:28.703Z,59.17
2023-02-11T10:33:17.984Z,54.38
2023-02-11T10:35:54.672Z,58.47
2023-02-11T10:38:33.974Z,58.70
2023-02-11T10:41:32.634Z,56.90
2023-02-11T10:44:00.403Z,59.35
2023-02-11T10:46:43.229Z,57.10
2023-02-11T10:50:10.457Z,53.67
2023-02-11T10:56:14.548Z,53.50
2023-02-11T10:59:14.322Z,51.75
2023-02-11T11:06:44.839Z,70.30
2023-02-11T11:10:37.574Z,61.65
2023-02-11T11:17:39.142Z,64.97
2023-02-11T11:21:17.442Z,65.82
2023-02-11T11:27:20.660Z,58.05
2023-02-11T11:30:59.606Z,55.05
2023-02-11T11:33:31.031Z,55.63
2023-02-11T11:36:10.252Z,54.95
2023-02-11T11:38:44.690Z,55.38
2023-02-11T11:41:20.472Z,54.08
2023-02-11T11:43:55.659Z,54.30
2023-02-11T11:46:25.227Z,62.85
2023-02-11T11:48:56.380Z,64.45
2023-02-11T11:51:24.711Z,68.25
2023-02-11T11:54:02.896Z,59.33
2023-02-11T11:56:33.711Z,68.82
2023-02-11T11:59:13.975Z,69.95
2023-02-11T12:02:10.467Z,69.00
2023-02-11T12:05:07.669Z,77.22
2023-02-11T12:07:47.579Z,64.93
2023-02-11T12:10:14.339Z,74.82
2023-02-11T12:12:50.287Z,69.20
2023-02-11T12:15:34.763Z,65.85
2023-02-11T12:18:21.978Z,55.95
2023-02-11T12:21:00.791Z,58.22
2023-02-11T12:23:58.002Z,55.35
2023-02-11T12:26:35.352Z,57.50
2023-02-11T12:29:14.043Z,50.45
2023-02-11T12:32:09.603Z,53.60
2023-02-11T12:35:06.331Z,49.15
2023-02-11T12:37:48.853Z,52.80
2023-02-11T12:40:45.045Z,41.28
2023-02-11T12:43:29.425Z,43.97
2023-02-11T12:46:27.460Z,43.70
2023-02-11T12:51:35.046Z,47.58
2023-02-11T12:54:15.695Z,45.20
2023-02-11T12:57:13.421Z,47.83
2023-02-11T13:00:12.993Z,45.08
2023-02-11T13:02:55.351Z,45.40
2023-02-11T13:05:37.615Z,50.20
2023-02-11T13:08:44.586Z,41.70
2023-02-11T13:11:17.397Z,39.45
2023-02-11T13:13:46.900Z,32.80
2023-02-11T13:16:22.913Z,40.03
2023-02-11T13:18:57.459Z,32.67
2023-02-11T13:21:43.425Z,31.17
2023-02-11T13:24:22.891Z,31.67
2023-02-11T13:26:55.781Z,32.67
2023-02-11T13:29:36.532Z,36.03
2023-02-11T13:32:10.094Z,31.55
2023-02-11T13:34:43.061Z,33.08
2023-02-11T13:37:23.906Z,34.22
2023-02-11T13:39:58.204Z,34.53
2023-02-11T13:42:24.986Z,31.58
2023-02-11T13:44:52.378Z,31.20
2023-02-11T13:47:36.953Z,37.67
2023-02-11T13:50:07.417Z,32.60
2023-02-11T13:52:37.701Z,36.38
2023-02-11T13:55:13.602Z,42.88
2023-02-11T13:57:41.524Z,30.90
2023-02-11T14:00:34.197Z,30.48
2023-02-11T14:03:31.760Z,33.13
2023-02-11T14:06:29.302Z,26.85
2023-02-11T14:09:01.107Z,35.50
2023-02-11T14:11:33.622Z,31.45
2023-02-11T14:14:19.272Z,33.97
2023-02-11T14:16:58.638Z,29.98
2023-02-11T14:19:35.549Z,33.05
2023-02-11T14:22:16.387Z,29.40
2023-02-11T14:24:48.265Z,32.92
2023-02-11T14:27:29.355Z,27.02
2023-02-11T14:30:33.549Z,32.65
2023-02-11T14:33:24.218Z,30.83
2023-02-11T14:36:17.315Z,34.35
2023-02-11T14:38:52.425Z,34.15
2023-02-11T14:41:31.796Z,36.78
2023-02-11T14:44:06.232Z,39.83
2023-02-11T14:46:33.915Z,30.33
2023-02-11T14:49:03.520Z,38.83
2023-02-11T14:51:40.508Z,45.78
2023-02-11T14:57:13.723Z,40.17
2023-02-11T14:59:52.109Z,42.53
2023-02-11T15:02:26.180Z,47.28
2023-02-11T15:04:53.024Z,43.45
2023-02-11T15:07:19.933Z,57.20
2023-02-11T15:09:51.107Z,51.42
2023-02-11T15:12:26.314Z,53.10
2023-02-11T15:14:55.495Z,58.03
2023-02-11T15:17:30.958Z,47.15
2023-02-11T15:20:02.571Z,48.55
2023-02-11T15:22:33.752Z,49.33
2023-02-11T15:25:14.667Z,47.00
2023-02-11T15:27:43.292Z,54.53
2023-02-11T15:30:33.949Z,48.83
2023-02-11T15:33:03.271Z,57.47
2023-02-11T15:35:37.030Z,99.93
2023-02-11T15:38:04.790Z,59.55
2023-02-11T15:40:34.487Z,62.38
2023-02-11T15:43:09.556Z,52.00
2023-02-11T15:45:40.105Z,58.55
2023-02-11T15:48:23.217Z,59.80
2023-02-11T15:50:58.631Z,56.13
2023-02-11T15:53:27.540Z,59.90
2023-02-11T15:56:21.864Z,57.63
2023-02-11T15:58:51.039Z,52.92
2023-02-11T16:01:17.900Z,50.28
2023-02-11T16:03:50.445Z,52.13
2023-02-11T16:06:22.125Z,56.33
2023-02-11T16:09:12.244Z,54.75
2023-02-11T16:11:48.212Z,57.50
2023-02-11T16:14:32.895Z,51.80
2023-02-11T16:17:17.919Z,58.90
2023-02-11T16:19:47.058Z,59.42
2023-02-11T16:22:27.418Z,52.88
2023-02-11T16:24:58.075Z,51.22
2023-02-11T16:27:30.392Z,54.30
2023-02-11T16:29:58.202Z,53.67
2023-02-11T16:32:27.647Z,52.33
2023-02-11T16:34:57.890Z,45.22
2023-02-11T16:37:25.294Z,57.70
2023-02-11T16:39:58.143Z,50.00
2023-02-11T16:42:25.240Z,57.70
2023-02-11T16:44:52.067Z,51.33
2023-02-11T16:47:27.875Z,47.65
2023-02-11T16:49:56.053Z,47.38
2023-02-11T16:52:23.785Z,50.08
2023-02-11T16:54:50.607Z,52.65
2023-02-11T16:57:22.999Z,48.85
2023-02-11T16:59:50.600Z,61.75
2023-02-11T17:02:25.225Z,62.50
2023-02-11T17:04:58.032Z,56.53
2023-02-11T17:07:25.175Z,57.28
2023-02-11T17:09:52.211Z,63.58
2023-02-11T17:12:21.726Z,58.13
2023-02-11T17:14:48.541Z,72.43
2023-02-11T17:17:16.177Z,66.53
2023-02-11T17:19:43.227Z,77.25
2023-02-11T17:22:11.432Z,84.75
2023-02-11T17:24:38.198Z,74.13
2023-02-11T17:27:04.890Z,75.35
2023-02-11T17:29:31.583Z,78.10
2023-02-11T17:31:58.393Z,71.63
2023-02-11T17:34:25.271Z,81.75
2023-02-11T17:36:52.069Z,70.15
2023-02-11T17:39:20.961Z,87.07
2023-02-11T17:41:47.809Z,88.63
2023-02-11T17:44:16.492Z,77.68
2023-02-11T17:46:43.867Z,85.45
